sensor_id;sensor_type;location;lat;lon;timestamp;pressure;altitude;pressure_sealevel;temperature;humidity
59513;BME280;45330;51.634;5.562;2023-07-29T00:00:46;100651.25;;;17.01;100.00
59513;BME280;45330;51.634;5.562;2023-07-29T00:03:12;100636.59;;;16.94;100.00
59513;BME280;45330;51.634;5.562;2023-07-29T00:05:38;100607.56;;;16.72;100.00
59513;BME280;45330;51.634;5.562;2023-07-29T00:08:03;100642.94;;;16.88;100.00
59513;BME280;45330;51.634;5.562;2023-07-29T00:10:31;100640.44;;;16.84;100.00
59513;BME280;45330;51.634;5.562;2023-07-29T00:12:57;100639.47;;;16.86;100.00
59513;BME280;45330;51.634;5.562;2023-07-29T00:15:22;100619.56;;;16.79;100.00
59513;BME280;45330;51.634;5.562;2023-07-29T00:17:48;100608.38;;;16.74;100.00
59513;BME280;45330;51.634;5.562;2023-07-29T00:20:13;100616.81;;;16.84;100.00
59513;BME280;45330;51.634;5.562;2023-07-29T00:22:39;100615.81;;;16.86;100.00
59513;BME280;45330;51.634;5.562;2023-07-29T00:25:04;100604.63;;;16.81;100.00
59513;BME280;45330;51.634;5.562;2023-07-29T00:27:30;100606.44;;;16.79;100.00
59513;BME280;45330;51.634;5.562;2023-07-29T00:29:55;100611.75;;;16.77;100.00
59513;BME280;45330;51.634;5.562;2023-07-29T00:32:20;100614.22;;;16.82;100.00
59513;BME280;45330;51.634;5.562;2023-07-29T00:34:46;100624.63;;;16.85;100.00
59513;BME280;45330;51.634;5.562;2023-07-29T00:37:11;100621.81;;;16.91;100.00
59513;BME280;45330;51.634;5.562;2023-07-29T00:39:37;100626.88;;;16.96;100.00
59513;BME280;45330;51.634;5.562;2023-07-29T00:42:03;100613.13;;;16.89;100.00
59513;BME280;45330;51.634;5.562;2023-07-29T00:44:29;100633.59;;;17.05;100.00
59513;BME280;45330;51.634;5.562;2023-07-29T00:46:57;100634.25;;;17.10;100.00
59513;BME280;45330;51.634;5.562;2023-07-29T00:49:22;100619.53;;;17.06;100.00
59513;BME280;45330;51.634;5.562;2023-07-29T00:51:47;100616.75;;;17.10;100.00
59513;BME280;45330;51.634;5.562;2023-07-29T00:54:13;100616.81;;;17.07;100.00
59513;BME280;45330;51.634;5.562;2023-07-29T00:56:39;100615.19;;;17.05;100.00
59513;BME280;45330;51.634;5.562;2023-07-29T00:59:05;100610.22;;;16.97;100.00
59513;BME280;45330;51.634;5.562;2023-07-29T01:01:31;100599.09;;;16.89;100.00
59513;BME280;45330;51.634;5.562;2023-07-29T01:03:57;100612.09;;;16.93;100.00
59513;BME280;45330;51.634;5.562;2023-07-29T01:09:11;100596.50;;;16.87;100.00
59513;BME280;45330;51.634;5.562;2023-07-29T01:11:52;100585.66;;;16.73;100.00
59513;BME280;45330;51.634;5.562;2023-07-29T01:17:13;100604.63;;;16.81;100.00
59513;BME280;45330;51.634;5.562;2023-07-29T01:20:08;100604.69;;;16.79;100.00
59513;BME280;45330;51.634;5.562;2023-07-29T01:22:36;100611.75;;;16.77;100.00
59513;BME280;45330;51.634;5.562;2023-07-29T01:25:03;100592.94;;;16.64;100.00
59513;BME280;45330;51.634;5.562;2023-07-29T01:27:29;100610.19;;;16.72;100.00
59513;BME280;45330;51.634;5.562;2023-07-29T01:29:55;100602.44;;;16.69;100.00
59513;BME280;45330;51.634;5.562;2023-07-29T01:35:28;100617.44;;;16.65;100.00
59513;BME280;45330;51.634;5.562;2023-07-29T01:38:03;100595.16;;;16.52;100.00
59513;BME280;45330;51.634;5.562;2023-07-29T01:40:29;100599.50;;;16.53;100.00
59513;BME280;45330;51.634;5.562;2023-07-29T01:42:55;100609.72;;;16.60;100.00
59513;BME280;45330;51.634;5.562;2023-07-29T01:45:23;100589.94;;;16.50;100.00
59513;BME280;45330;51.634;5.562;2023-07-29T01:47:49;100607.69;;;16.69;100.00
59513;BME280;45330;51.634;5.562;2023-07-29T01:50:15;100602.44;;;16.69;100.00
59513;BME280;45330;51.634;5.562;2023-07-29T01:52:40;100622.78;;;16.87;100.00
59513;BME280;45330;51.634;5.562;2023-07-29T01:55:06;100611.75;;;16.77;100.00
59513;BME280;45330;51.634;5.562;2023-07-29T01:57:31;100614.78;;;16.92;100.00
59513;BME280;45330;51.634;5.562;2023-07-29T01:59:56;100617.25;;;16.96;100.00
59513;BME280;45330;51.634;5.562;2023-07-29T02:02:22;100620.66;;;16.98;100.00
59513;BME280;45330;51.634;5.562;2023-07-29T02:04:47;100626.69;;;17.02;100.00
59513;BME280;45330;51.634;5.562;2023-07-29T02:07:17;100617.97;;;17.00;100.00
59513;BME280;45330;51.634;5.562;2023-07-29T02:09:42;100613.59;;;17.01;100.00
59513;BME280;45330;51.634;5.562;2023-07-29T02:12:07;100619.63;;;17.03;100.00
59513;BME280;45330;51.634;5.562;2023-07-29T02:14:33;100621.31;;;17.05;100.00
59513;BME280;45330;51.634;5.562;2023-07-29T02:16:58;100621.31;;;17.05;100.00
59513;BME280;45330;51.634;5.562;2023-07-29T02:19:23;100617.75;;;17.06;100.00
59513;BME280;45330;51.634;5.562;2023-07-29T02:21:49;100618.63;;;17.07;100.00
59513;BME280;45330;51.634;5.562;2023-07-29T02:24:14;100601.22;;;17.03;100.00
59513;BME280;45330;51.634;5.562;2023-07-29T02:26:41;100593.53;;;16.98;100.00
59513;BME280;45330;51.634;5.562;2023-07-29T02:29:06;100584.03;;;16.94;100.00
59513;BME280;45330;51.634;5.562;2023-07-29T02:31:31;100584.22;;;16.89;100.00
59513;BME280;45330;51.634;5.562;2023-07-29T02:33:57;100592.13;;;16.88;100.00
59513;BME280;45330;51.634;5.562;2023-07-29T02:36:22;100593.28;;;16.79;100.00
59513;BME280;45330;51.634;5.562;2023-07-29T02:38:48;100600.38;;;16.77;100.00
59513;BME280;45330;51.634;5.562;2023-07-29T02:41:13;100581.69;;;16.61;100.00
59513;BME280;45330;51.634;5.562;2023-07-29T02:43:41;100578.53;;;16.51;100.00
59513;BME280;45330;51.634;5.562;2023-07-29T02:46:06;100581.84;;;16.56;100.00
59513;BME280;45330;51.634;5.562;2023-07-29T02:48:32;100597.41;;;16.62;100.00
59513;BME280;45330;51.634;5.562;2023-07-29T02:50:57;100602.66;;;16.62;100.00
59513;BME280;45330;51.634;5.562;2023-07-29T02:53:23;100594.06;;;16.57;100.00
59513;BME280;45330;51.634;5.562;2023-07-29T02:55:48;100597.72;;;16.53;100.00
59513;BME280;45330;51.634;5.562;2023-07-29T02:58:14;100581.47;;;16.42;100.00
59513;BME280;45330;51.634;5.562;2023-07-29T03:00:39;100593.66;;;16.44;100.00
59513;BME280;45330;51.634;5.562;2023-07-29T03:03:07;100591.22;;;16.38;100.00
59513;BME280;45330;51.634;5.562;2023-07-29T03:05:33;100580.22;;;16.27;100.00
59513;BME280;45330;51.634;5.562;2023-07-29T03:07:58;100576.84;;;16.23;100.00
59513;BME280;45330;51.634;5.562;2023-07-29T03:10:24;100594.97;;;16.31;100.00
59513;BME280;45330;51.634;5.562;2023-07-29T03:12:50;100590.66;;;16.28;100.00
59513;BME280;45330;51.634;5.562;2023-07-29T03:15:16;100581.22;;;16.24;100.00
59513;BME280;45330;51.634;5.562;2023-07-29T03:17:41;100589.03;;;16.26;100.00
59513;BME280;45330;51.634;5.562;2023-07-29T03:20:07;100585.56;;;16.24;100.00
59513;BME280;45330;51.634;5.562;2023-07-29T03:22:33;100596.06;;;16.24;100.00
59513;BME280;45330;51.634;5.562;2023-07-29T03:24:58;100583.13;;;16.19;100.00
59513;BME280;45330;51.634;5.562;2023-07-29T03:27:23;100566.88;;;16.08;100.00
59513;BME280;45330;51.634;5.562;2023-07-29T03:29:49;100587.41;;;16.22;100.00
59513;BME280;45330;51.634;5.562;2023-07-29T03:32:14;100595.34;;;16.20;100.00
59513;BME280;45330;51.634;5.562;2023-07-29T03:34:39;100592.84;;;16.16;100.00
59513;BME280;45330;51.634;5.562;2023-07-29T03:37:05;100579.28;;;16.03;100.00
59513;BME280;45330;51.634;5.562;2023-07-29T03:39:31;100587.16;;;16.03;100.00
59513;BME280;45330;51.634;5.562;2023-07-29T03:41:57;100607.03;;;16.10;100.00
59513;BME280;45330;51.634;5.562;2023-07-29T03:44:22;100603.72;;;16.05;100.00
59513;BME280;45330;51.634;5.562;2023-07-29T03:46:47;100606.41;;;16.03;100.00
59513;BME280;45330;51.634;5.562;2023-07-29T03:49:13;100613.44;;;16.01;100.00
59513;BME280;45330;51.634;5.562;2023-07-29T03:51:38;100590.16;;;15.90;100.00
59513;BME280;45330;51.634;5.562;2023-07-29T03:54:04;100589.47;;;15.85;100.00
59513;BME280;45330;51.634;5.562;2023-07-29T03:56:29;100590.22;;;15.89;100.00
59513;BME280;45330;51.634;5.562;2023-07-29T03:59:03;100592.75;;;15.92;100.00
59513;BME280;45330;51.634;5.562;2023-07-29T04:01:28;100594.72;;;15.85;100.00
59513;BME280;45330;51.634;5.562;2023-07-29T04:03:54;100604.34;;;15.85;100.00
59513;BME280;45330;51.634;5.562;2023-07-29T04:06:20;100590.44;;;15.83;100.00
59513;BME280;45330;51.634;5.562;2023-07-29T04:08:45;100570.47;;;15.77;100.00
59513;BME280;45330;51.634;5.562;2023-07-29T04:11:11;100560.03;;;15.75;100.00
59513;BME280;45330;51.634;5.562;2023-07-29T04:13:37;100558.34;;;15.73;100.00
59513;BME280;45330;51.634;5.562;2023-07-29T04:16:04;100541.22;;;15.63;100.00
59513;BME280;45330;51.634;5.562;2023-07-29T04:18:29;100556.94;;;15.63;100.00
59513;BME280;45330;51.634;5.562;2023-07-29T04:20:55;100564.50;;;15.72;100.00
59513;BME280;45330;51.634;5.562;2023-07-29T04:23:20;100563.66;;;15.71;100.00
59513;BME280;45330;51.634;5.562;2023-07-29T04:25:46;100557.53;;;15.71;100.00
59513;BME280;45330;51.634;5.562;2023-07-29T04:28:11;100577.44;;;15.78;100.00
59513;BME280;45330;51.634;5.562;2023-07-29T04:30:36;100583.69;;;15.74;100.00
59513;BME280;45330;51.634;5.562;2023-07-29T04:33:02;100606.28;;;15.80;100.00
59513;BME280;45330;51.634;5.562;2023-07-29T04:35:28;100603.00;;;15.71;100.00
59513;BME280;45330;51.634;5.562;2023-07-29T04:37:53;100597.91;;;15.67;100.00
59513;BME280;45330;51.634;5.562;2023-07-29T04:40:19;100626.50;;;15.74;100.00
59513;BME280;45330;51.634;5.562;2023-07-29T04:42:44;100606.53;;;15.70;100.00
59513;BME280;45330;51.634;5.562;2023-07-29T04:45:09;100592.63;;;15.68;100.00
59513;BME280;45330;51.634;5.562;2023-07-29T04:47:35;100605.13;;;15.88;100.00
59513;BME280;45330;51.634;5.562;2023-07-29T04:50:00;100611.16;;;15.90;100.00
59513;BME280;45330;51.634;5.562;2023-07-29T04:52:26;100616.19;;;15.98;100.00
59513;BME280;45330;51.634;5.562;2023-07-29T04:54:51;100616.91;;;16.02;100.00
59513;BME280;45330;51.634;5.562;2023-07-29T04:57:16;100626.34;;;16.09;100.00
59513;BME280;45330;51.634;5.562;2023-07-29T04:59:42;100615.88;;;16.07;100.00
59513;BME280;45330;51.634;5.562;2023-07-29T05:02:07;100606.81;;;16.18;100.00
59513;BME280;45330;51.634;5.562;2023-07-29T05:04:32;100615.41;;;16.21;100.00
59513;BME280;45330;51.634;5.562;2023-07-29T05:06:58;100617.97;;;16.24;100.00
59513;BME280;45330;51.634;5.562;2023-07-29T05:09:23;100605.91;;;16.19;100.00
59513;BME280;45330;51.634;5.562;2023-07-29T05:11:49;100631.59;;;16.34;100.00
59513;BME280;45330;51.634;5.562;2023-07-29T05:14:15;100628.03;;;16.37;100.00
59513;BME280;45330;51.634;5.562;2023-07-29T05:16:41;100612.50;;;16.31;100.00
59513;BME280;45330;51.634;5.562;2023-07-29T05:19:07;100633.22;;;16.38;100.00
59513;BME280;45330;51.634;5.562;2023-07-29T05:21:32;100637.47;;;16.42;100.00
59513;BME280;45330;51.634;5.562;2023-07-29T05:23:58;100628.13;;;16.34;100.00
59513;BME280;45330;51.634;5.562;2023-07-29T05:26:23;100636.69;;;16.40;100.00
59513;BME280;45330;51.634;5.562;2023-07-29T05:28:49;100647.56;;;16.55;100.00
59513;BME280;45330;51.634;5.562;2023-07-29T05:31:14;100633.63;;;16.53;100.00
59513;BME280;45330;51.634;5.562;2023-07-29T05:33:39;100647.03;;;16.70;100.00
59513;BME280;45330;51.634;5.562;2023-07-29T05:36:05;100624.47;;;16.64;100.00
59513;BME280;45330;51.634;5.562;2023-07-29T05:38:30;100637.91;;;16.80;100.00
59513;BME280;45330;51.634;5.562;2023-07-29T05:40:56;100635.19;;;16.84;100.00
59513;BME280;45330;51.634;5.562;2023-07-29T05:43:21;100633.06;;;16.95;100.00
59513;BME280;45330;51.634;5.562;2023-07-29T05:45:47;100651.66;;;17.14;100.00
59513;BME280;45330;51.634;5.562;2023-07-29T05:48:12;100637.84;;;17.07;100.00
59513;BME280;45330;51.634;5.562;2023-07-29T05:50:37;100630.72;;;17.11;100.00
59513;BME280;45330;51.634;5.562;2023-07-29T05:53:03;100636.44;;;17.22;100.00
59513;BME280;45330;51.634;5.562;2023-07-29T05:55:28;100624.44;;;17.39;100.00
59513;BME280;45330;51.634;5.562;2023-07-29T05:57:54;100632.16;;;17.89;100.00
59513;BME280;45330;51.634;5.562;2023-07-29T06:00:20;100640.09;;;19.52;100.00
59513;BME280;45330;51.634;5.562;2023-07-29T06:02:45;100642.91;;;21.26;100.00
59513;BME280;45330;51.634;5.562;2023-07-29T06:05:11;100645.81;;;22.33;100.00
59513;BME280;45330;51.634;5.562;2023-07-29T06:07:36;100636.44;;;23.44;100.00
59513;BME280;45330;51.634;5.562;2023-07-29T06:10:02;100630.75;;;23.92;95.60
59513;BME280;45330;51.634;5.562;2023-07-29T06:12:27;100647.84;;;23.88;96.31
59513;BME280;45330;51.634;5.562;2023-07-29T06:14:53;100645.50;;;23.69;92.33
59513;BME280;45330;51.634;5.562;2023-07-29T06:17:18;100628.66;;;23.83;89.68
59513;BME280;45330;51.634;5.562;2023-07-29T06:19:43;100643.44;;;24.42;86.84
59513;BME280;45330;51.634;5.562;2023-07-29T06:22:10;100646.75;;;24.05;86.01
59513;BME280;45330;51.634;5.562;2023-07-29T06:24:35;100643.56;;;24.13;86.42
59513;BME280;45330;51.634;5.562;2023-07-29T06:27:01;100641.22;;;24.08;86.67
59513;BME280;45330;51.634;5.562;2023-07-29T06:29:26;100636.78;;;23.67;89.36
59513;BME280;45330;51.634;5.562;2023-07-29T06:31:51;100647.34;;;23.96;85.91
59513;BME280;45330;51.634;5.562;2023-07-29T06:34:17;100640.63;;;23.34;87.74
59513;BME280;45330;51.634;5.562;2023-07-29T06:36:43;100651.88;;;22.94;89.16
59513;BME280;45330;51.634;5.562;2023-07-29T06:39:09;100657.66;;;21.96;96.31
59513;BME280;45330;51.634;5.562;2023-07-29T06:41:34;100648.28;;;21.08;100.00
59513;BME280;45330;51.634;5.562;2023-07-29T06:44:00;100653.78;;;20.70;100.00
59513;BME280;45330;51.634;5.562;2023-07-29T06:46:25;100639.47;;;20.39;100.00
59513;BME280;45330;51.634;5.562;2023-07-29T06:48:51;100663.31;;;20.73;100.00
59513;BME280;45330;51.634;5.562;2023-07-29T06:51:16;100654.03;;;20.64;100.00
59513;BME280;45330;51.634;5.562;2023-07-29T06:53:42;100639.75;;;20.33;100.00
59513;BME280;45330;51.634;5.562;2023-07-29T06:56:07;100645.03;;;20.16;100.00
59513;BME280;45330;51.634;5.562;2023-07-29T06:58:32;100653.88;;;19.97;100.00
59513;BME280;45330;51.634;5.562;2023-07-29T07:00:58;100654.78;;;19.96;100.00
59513;BME280;45330;51.634;5.562;2023-07-29T07:03:23;100651.81;;;19.85;100.00
59513;BME280;45330;51.634;5.562;2023-07-29T07:05:49;100645.53;;;19.87;100.00
59513;BME280;45330;51.634;5.562;2023-07-29T07:08:15;100632.00;;;19.94;100.00
59513;BME280;45330;51.634;5.562;2023-07-29T07:10:40;100640.66;;;19.97;100.00
59513;BME280;45330;51.634;5.562;2023-07-29T07:13:06;100659.25;;;20.31;100.00
59513;BME280;45330;51.634;5.562;2023-07-29T07:15:31;100648.06;;;20.43;100.00
59513;BME280;45330;51.634;5.562;2023-07-29T07:17:57;100659.22;;;20.67;100.00
59513;BME280;45330;51.634;5.562;2023-07-29T07:20:22;100646.81;;;20.50;100.00
59513;BME280;45330;51.634;5.562;2023-07-29T07:22:48;100670.00;;;20.45;100.00
59513;BME280;45330;51.634;5.562;2023-07-29T07:25:13;100645.19;;;20.65;100.00
59513;BME280;45330;51.634;5.562;2023-07-29T07:27:38;100648.22;;;20.93;100.00
59513;BME280;45330;51.634;5.562;2023-07-29T07:30:04;100665.28;;;21.20;100.00
59513;BME280;45330;51.634;5.562;2023-07-29T07:32:30;100660.56;;;21.10;100.00
59513;BME280;45330;51.634;5.562;2023-07-29T07:34:55;100657.41;;;20.85;100.00
59513;BME280;45330;51.634;5.562;2023-07-29T07:37:20;100676.47;;;20.92;100.00
59513;BME280;45330;51.634;5.562;2023-07-29T07:39:46;100677.09;;;20.97;100.00
59513;BME280;45330;51.634;5.562;2023-07-29T07:42:11;100678.38;;;21.06;100.00
59513;BME280;45330;51.634;5.562;2023-07-29T07:44:36;100687.66;;;20.97;100.00
59513;BME280;45330;51.634;5.562;2023-07-29T07:47:02;100681.84;;;20.73;100.00
59513;BME280;45330;51.634;5.562;2023-07-29T07:49:28;100684.38;;;20.39;100.00
59513;BME280;45330;51.634;5.562;2023-07-29T07:51:54;100687.56;;;20.29;100.00
59513;BME280;45330;51.634;5.562;2023-07-29T07:54:19;100679.06;;;20.22;100.00
59513;BME280;45330;51.634;5.562;2023-07-29T07:56:44;100690.78;;;20.16;100.00
59513;BME280;45330;51.634;5.562;2023-07-29T07:59:10;100697.72;;;20.19;100.00
59513;BME280;45330;51.634;5.562;2023-07-29T08:01:37;100693.16;;;20.22;100.00
59513;BME280;45330;51.634;5.562;2023-07-29T08:04:03;100699.91;;;20.28;100.00
59513;BME280;45330;51.634;5.562;2023-07-29T08:06:30;100685.31;;;20.21;100.00
59513;BME280;45330;51.634;5.562;2023-07-29T08:08:56;100693.41;;;20.35;100.00
59513;BME280;45330;51.634;5.562;2023-07-29T08:11:21;100694.59;;;20.65;100.00
59513;BME280;45330;51.634;5.562;2023-07-29T08:13:47;100684.41;;;20.92;100.00
59513;BME280;45330;51.634;5.562;2023-07-29T08:16:12;100677.09;;;20.97;100.00
59513;BME280;45330;51.634;5.562;2023-07-29T08:18:37;100688.41;;;21.17;100.00
59513;BME280;45330;51.634;5.562;2023-07-29T08:21:03;100680.38;;;21.18;100.00
59513;BME280;45330;51.634;5.562;2023-07-29T08:23:32;100686.91;;;21.45;100.00
59513;BME280;45330;51.634;5.562;2023-07-29T08:26:00;100700.19;;;21.92;100.00
59513;BME280;45330;51.634;5.562;2023-07-29T08:28:34;100695.41;;;21.99;100.00
59513;BME280;45330;51.634;5.562;2023-07-29T08:31:00;100689.56;;;21.94;100.00
59513;BME280;45330;51.634;5.562;2023-07-29T08:33:26;100688.81;;;22.22;100.00
59513;BME280;45330;51.634;5.562;2023-07-29T08:35:51;100684.31;;;22.55;100.00
59513;BME280;45330;51.634;5.562;2023-07-29T08:38:17;100691.16;;;22.59;100.00
59513;BME280;45330;51.634;5.562;2023-07-29T08:41:32;100694.00;;;22.56;100.00
59513;BME280;45330;51.634;5.562;2023-07-29T08:43:32;100690.63;;;22.38;100.00
59513;BME280;45330;51.634;5.562;2023-07-29T08:45:59;100677.53;;;22.19;100.00
59513;BME280;45330;51.634;5.562;2023-07-29T08:48:43;100692.50;;;22.36;100.00
59513;BME280;45330;51.634;5.562;2023-07-29T08:51:10;100685.94;;;22.11;100.00
59513;BME280;45330;51.634;5.562;2023-07-29T08:53:36;100695.47;;;22.14;100.00
59513;BME280;45330;51.634;5.562;2023-07-29T08:56:02;100684.66;;;22.02;100.00
59513;BME280;45330;51.634;5.562;2023-07-29T08:58:28;100695.66;;;22.42;100.00
59513;BME280;45330;51.634;5.562;2023-07-29T09:00:54;100667.06;;;22.48;98.27
59513;BME280;45330;51.634;5.562;2023-07-29T09:03:20;100681.88;;;22.52;98.34
59513;BME280;45330;51.634;5.562;2023-07-29T09:05:45;100677.16;;;22.71;98.05
59513;BME280;45330;51.634;5.562;2023-07-29T09:08:11;100677.28;;;22.84;94.36
59513;BME280;45330;51.634;5.562;2023-07-29T09:10:37;100678.22;;;22.83;96.25
59513;BME280;45330;51.634;5.562;2023-07-29T09:13:06;100687.53;;;22.60;95.61
59513;BME280;45330;51.634;5.562;2023-07-29T09:15:34;100679.34;;;22.34;94.35
59513;BME280;45330;51.634;5.562;2023-07-29T09:18:08;100684.28;;;22.24;96.52
59513;BME280;45330;51.634;5.562;2023-07-29T09:20:34;100685.31;;;22.38;98.04
59513;BME280;45330;51.634;5.562;2023-07-29T09:23:00;100669.81;;;22.46;94.90
59513;BME280;45330;51.634;5.562;2023-07-29T09:25:26;100664.34;;;22.49;96.30
59513;BME280;45330;51.634;5.562;2023-07-29T09:27:52;100663.06;;;22.24;95.11
59513;BME280;45330;51.634;5.562;2023-07-29T09:30:18;100667.13;;;22.16;95.42
59513;BME280;45330;51.634;5.562;2023-07-29T09:32:43;100663.53;;;22.17;98.56
59513;BME280;45330;51.634;5.562;2023-07-29T09:35:12;100664.97;;;22.22;98.83
59513;BME280;45330;51.634;5.562;2023-07-29T09:37:38;100666.22;;;22.31;96.46
59513;BME280;45330;51.634;5.562;2023-07-29T09:40:05;100662.19;;;22.56;95.24
59513;BME280;45330;51.634;5.562;2023-07-29T09:42:32;100674.25;;;22.90;94.57
59513;BME280;45330;51.634;5.562;2023-07-29T09:44:57;100658.44;;;23.03;91.23
59513;BME280;45330;51.634;5.562;2023-07-29T09:47:24;100662.47;;;23.25;88.54
59513;BME280;45330;51.634;5.562;2023-07-29T09:49:51;100660.44;;;23.43;89.50
59513;BME280;45330;51.634;5.562;2023-07-29T09:52:21;100666.72;;;23.42;88.04
59513;BME280;45330;51.634;5.562;2023-07-29T09:54:47;100655.13;;;23.43;87.06
59513;BME280;45330;51.634;5.562;2023-07-29T09:57:18;100654.28;;;23.42;88.97
59513;BME280;45330;51.634;5.562;2023-07-29T09:59:56;100673.97;;;23.67;92.20
59513;BME280;45330;51.634;5.562;2023-07-29T10:02:22;100658.81;;;23.55;86.46
59513;BME280;45330;51.634;5.562;2023-07-29T10:04:51;100668.06;;;23.76;83.22
59513;BME280;45330;51.634;5.562;2023-07-29T10:07:17;100668.59;;;24.23;82.72
59513;BME280;45330;51.634;5.562;2023-07-29T10:09:45;100675.56;;;24.39;79.49
59513;BME280;45330;51.634;5.562;2023-07-29T10:12:11;100677.84;;;24.83;79.91
59513;BME280;45330;51.634;5.562;2023-07-29T10:14:38;100669.88;;;25.22;77.08
59513;BME280;45330;51.634;5.562;2023-07-29T10:17:05;100678.25;;;25.55;74.21
59513;BME280;45330;51.634;5.562;2023-07-29T10:19:31;100666.16;;;25.38;72.89
59513;BME280;45330;51.634;5.562;2023-07-29T10:21:59;100672.19;;;25.27;73.80
59513;BME280;45330;51.634;5.562;2023-07-29T10:24:29;100666.34;;;25.22;74.05
59513;BME280;45330;51.634;5.562;2023-07-29T10:27:00;100659.84;;;25.26;75.84
59513;BME280;45330;51.634;5.562;2023-07-29T10:29:31;100669.75;;;25.49;75.11
59513;BME280;45330;51.634;5.562;2023-07-29T10:32:01;100657.63;;;25.32;72.41
59513;BME280;45330;51.634;5.562;2023-07-29T10:34:27;100653.91;;;25.22;71.35
59513;BME280;45330;51.634;5.562;2023-07-29T10:36:53;100649.66;;;25.07;70.84
59513;BME280;45330;51.634;5.562;2023-07-29T10:39:19;100662.22;;;24.79;73.04
59513;BME280;45330;51.634;5.562;2023-07-29T10:42:01;100659.16;;;24.98;76.60
59513;BME280;45330;51.634;5.562;2023-07-29T10:47:25;100653.44;;;25.28;74.94
59513;BME280;45330;51.634;5.562;2023-07-29T10:49:53;100639.22;;;25.04;73.49
59513;BME280;45330;51.634;5.562;2023-07-29T10:55:00;100656.03;;;25.17;72.46
59513;BME280;45330;51.634;5.562;2023-07-29T10:57:34;100657.94;;;25.41;72.56
59513;BME280;45330;51.634;5.562;2023-07-29T11:00:00;100649.13;;;25.64;72.80
59513;BME280;45330;51.634;5.562;2023-07-29T11:02:35;100651.94;;;26.11;70.59
59513;BME280;45330;51.634;5.562;2023-07-29T11:05:16;100648.13;;;26.27;69.68
59513;BME280;45330;51.634;5.562;2023-07-29T11:07:46;100652.91;;;26.10;65.85
59513;BME280;45330;51.634;5.562;2023-07-29T11:10:12;100650.28;;;25.73;67.25
59513;BME280;45330;51.634;5.562;2023-07-29T11:12:39;100654.50;;;25.26;69.31
59513;BME280;45330;51.634;5.562;2023-07-29T11:15:15;100660.41;;;24.79;71.90
59513;BME280;45330;51.634;5.562;2023-07-29T11:17:47;100649.38;;;24.58;73.19
59513;BME280;45330;51.634;5.562;2023-07-29T11:20:14;100658.72;;;24.38;72.84
59513;BME280;45330;51.634;5.562;2023-07-29T11:22:41;100658.25;;;24.19;73.86
59513;BME280;45330;51.634;5.562;2023-07-29T11:25:08;100645.75;;;24.06;74.64
59513;BME280;45330;51.634;5.562;2023-07-29T11:27:35;100645.63;;;23.95;76.26
59513;BME280;45330;51.634;5.562;2023-07-29T11:30:03;100654.41;;;23.68;78.52
59513;BME280;45330;51.634;5.562;2023-07-29T11:32:30;100654.75;;;23.49;79.22
59513;BME280;45330;51.634;5.562;2023-07-29T11:34:56;100654.03;;;23.60;79.47
59513;BME280;45330;51.634;5.562;2023-07-29T11:37:22;100654.84;;;23.89;76.52
59513;BME280;45330;51.634;5.562;2023-07-29T11:39:47;100644.19;;;24.04;78.18
59513;BME280;45330;51.634;5.562;2023-07-29T11:42:14;100638.72;;;24.32;74.71
59513;BME280;45330;51.634;5.562;2023-07-29T11:44:40;100653.38;;;24.65;74.30
59513;BME280;45330;51.634;5.562;2023-07-29T11:47:07;100662.53;;;24.61;74.40
59513;BME280;45330;51.634;5.562;2023-07-29T11:49:33;100657.31;;;24.20;78.15
59513;BME280;45330;51.634;5.562;2023-07-29T11:51:59;100671.28;;;23.81;83.08
59513;BME280;45330;51.634;5.562;2023-07-29T11:54:25;100667.84;;;23.79;84.04
59513;BME280;45330;51.634;5.562;2023-07-29T11:56:50;100654.97;;;24.15;82.87
59513;BME280;45330;51.634;5.562;2023-07-29T11:59:16;100663.28;;;24.63;80.19
59513;BME280;45330;51.634;5.562;2023-07-29T12:01:41;100665.44;;;24.84;77.54
59513;BME280;45330;51.634;5.562;2023-07-29T12:04:07;100659.03;;;24.87;77.32
59513;BME280;45330;51.634;5.562;2023-07-29T12:06:33;100655.06;;;24.66;77.10
59513;BME280;45330;51.634;5.562;2023-07-29T12:08:58;100657.00;;;24.24;81.39
59513;BME280;45330;51.634;5.562;2023-07-29T12:11:24;100669.84;;;23.20;99.29
59513;BME280;45330;51.634;5.562;2023-07-29T12:13:49;100662.50;;;21.39;100.00
59513;BME280;45330;51.634;5.562;2023-07-29T12:16:18;100674.56;;;20.42;100.00
59513;BME280;45330;51.634;5.562;2023-07-29T12:18:43;100674.56;;;19.87;100.00
59513;BME280;45330;51.634;5.562;2023-07-29T12:21:09;100648.50;;;19.23;100.00
59513;BME280;45330;51.634;5.562;2023-07-29T12:23:35;100675.88;;;19.20;100.00
59513;BME280;45330;51.634;5.562;2023-07-29T12:26:01;100665.28;;;19.01;100.00
59513;BME280;45330;51.634;5.562;2023-07-29T12:28:26;100673.66;;;18.69;100.00
59513;BME280;45330;51.634;5.562;2023-07-29T12:30:55;100696.50;;;18.48;100.00
59513;BME280;45330;51.634;5.562;2023-07-29T12:35:56;100729.72;;;18.30;100.00
59513;BME280;45330;51.634;5.562;2023-07-29T12:38:22;100732.97;;;18.15;100.00
59513;BME280;45330;51.634;5.562;2023-07-29T12:40:47;100702.28;;;17.90;100.00
59513;BME280;45330;51.634;5.562;2023-07-29T12:43:13;100707.91;;;17.81;100.00
59513;BME280;45330;51.634;5.562;2023-07-29T12:45:38;100725.91;;;17.93;100.00
59513;BME280;45330;51.634;5.562;2023-07-29T12:48:08;100718.06;;;17.92;100.00
59513;BME280;45330;51.634;5.562;2023-07-29T12:50:33;100686.47;;;17.68;100.00
59513;BME280;45330;51.634;5.562;2023-07-29T12:52:59;100691.09;;;17.85;100.00
59513;BME280;45330;51.634;5.562;2023-07-29T12:55:24;100706.06;;;18.07;100.00